Meteo Giornale » Osservazioni meteo Italia » Resia Pass

ore: 12:55 - Osservazioni Meteo Resia Pass
Lat. 46° 50' N Lon. 10° 30' E Alt. 1800 metri s.l.m.

sereno Europe/Rome

27 °C

Sereno

Temp. 24 Ore

14 °C

27 °C

Nord

7.4 Km/h

Dew point 5 °C

Umidità 24 %

Visibilità  10 Km

Il sole sorge alle ore 05:22

Il sole tramonta alle ore 21:18

Data e Ora Cielo e Fenomeni T °C DP °C Um. % Pres. hPa Vis. km Vento km/h
Oggi h: 12:55 sereno Sereno 27 5 24 1024 10 N 7.4
Oggi h: 11:55 sereno Sereno 25 5 27 1024 10 N 7.4
Oggi h: 10:55 sereno Sereno 19 10 55 1025 10 N 9.3
Oggi h: 09:55 sereno Sereno 18 11 63 1025 10 N/NO 7.4
Oggi h: 08:55 sereno Sereno 16 12 77 1025 10 N 5.5
Oggi h: 07:55 sereno Sereno 15 12 82 1025 10 N 5.5
Oggi h: 06:55 sereno Sereno 14 12 87 1025 10 N 5.5
Oggi h: 05:55 sereno Sereno 14 12 87 1024 10 N 5.5
Oggi h: 04:55 sereno Sereno 14 12 87 1024 10 N 0
Oggi h: 03:55 sereno Sereno 14 9 71 1024 10 N 0
Oggi h: 02:55 sereno Sereno 15 9 67 1024 10 N 5.5
Oggi h: 01:55 sereno Sereno 15 9 67 1024 10 N 5.5
Oggi h: 00:55 sereno Sereno 17 11 67 1024 10 N 5.5
Ieri h: 23:55 sereno Sereno 18 9 55 1023 10 N/NE 7.4
Ieri h: 22:55 sereno Sereno 19 10 55 1022 10 N/NE 7.4
Ieri h: 21:55 sereno Sereno 20 8 45 1022 10 N 5.5
Ieri h: 20:55 sereno Sereno 22 7 37 1020 10 N 5.5
Ieri h: 19:55 sereno Sereno 25 5 27 1019 10 N 11.1
Ieri h: 18:55 sereno Sereno 24 2 23 1019 10 N 9.3
Ieri h: 17:55 sereno Sereno 25 -1 17 1019 10 N 11.1
Ieri h: 16:55 sereno Sereno 27 0 17 1019 10 N 11.1
Ieri h: 15:55 sereno Sereno 26 -1 16 1020 10 N 11.1
Ieri h: 14:55 sereno Sereno 26 -2 15 1021 10 N 13